^^
Datos históricos de la estación: Murcia-Puente Tocinos
Diario Informe para Septiembre 20, 2021 Unidades:  Ambas    Ingés   Métrico
Diario Semanal Mensual Anual
  Máxima: Mínima: Promedio:
Temperatura: 83.3 °F /  28.5 °C 69.4 °F /  20.8 °C 75 °F /  23.9 °C
Punto de rocio: 65.1 °F /  18.4 °C 59.7 °F /  15.4 °C 62.4 °F /  16.9 °C
Humedad: 75% 49.5% 66%
Velocidad viento: 9.7mph /  15.6km/h - 4.4mph /  7.1km/h
Racha viento: 18.4mph /  29.6km/h - -
Viento- - SSE
Presión: 30.1 in /  1018.1 hPa 30 in /  1014.4 hPa -
Precipitación: 0 in /  0.0 mm    
 
 
Tabla de datos para Septiembre 20, 2021
Hora Temperatura Punto de rocio Presión Viento Velocidad viento Racha viento Humedad Intensidad lluvia(por hora) Nubes
00:04 72.7 °F /  22.6 °C 62.2 °F /  16.8 °C 30.1in /  1017.6hPa NO 2.9mph /  4.7km/h 3.6mph /  5.8km/h 70% 0in /  0.0mm
00:09 72.7 °F /  22.6 °C 62.4 °F /  16.9 °C 30.1in /  1017.6hPa NO 2.7mph /  4.4km/h 3.6mph /  5.8km/h 70.3% 0in /  0.0mm
00:14 72.5 °F /  22.5 °C 62.2 °F /  16.8 °C 30.1in /  1017.6hPa NO 2.4mph /  3.9km/h 3.6mph /  5.8km/h 70% 0in /  0.0mm
00:19 72.5 °F /  22.5 °C 62.2 °F /  16.8 °C 30.1in /  1017.6hPa NNO 2.2mph /  3.5km/h 2.3mph /  3.7km/h 70% 0in /  0.0mm
00:24 72.5 °F /  22.5 °C 62.2 °F /  16.8 °C 30.1in /  1017.6hPa NNO 1.8mph /  2.9km/h 3.5mph /  5.6km/h 70% 0in /  0.0mm
00:29 72.3 °F /  22.4 °C 62.1 °F /  16.7 °C 30.1in /  1017.6hPa NNO 1.1mph /  1.8km/h 2.3mph /  3.7km/h 70.2% 0in /  0.0mm
00:34 72.3 °F /  22.4 °C 62.4 °F /  16.9 °C 30.1in /  1017.7hPa Calm   2.9mph /  4.7km/h 71% 0in /  0.0mm
00:39 72.3 °F /  22.4 °C 62.4 °F /  16.9 °C 30.1in /  1017.7hPa NO 0.3mph /  0.5km/h 2.4mph /  3.9km/h 71% 0in /  0.0mm
00:44 72.3 °F /  22.4 °C 62.2 °F /  16.8 °C 30.1in /  1017.7hPa NO 1.4mph /  2.3km/h 2.9mph /  4.7km/h 70.6% 0in /  0.0mm
00:49 72.3 °F /  22.4 °C 62.1 °F /  16.7 °C 30.1in /  1017.7hPa Oeste 1.6mph /  2.6km/h 4.6mph /  7.4km/h 70% 0in /  0.0mm
00:54 72.3 °F /  22.4 °C 62.1 °F /  16.7 °C 30.1in /  1017.7hPa Oeste 2mph /  3.2km/h 4.6mph /  7.4km/h 70% 0in /  0.0mm
00:59 72.1 °F /  22.3 °C 61.9 °F /  16.6 °C 30.1in /  1017.7hPa Oeste 2.4mph /  3.8km/h 4.6mph /  7.4km/h 70% 0in /  0.0mm
01:04 72.1 °F /  22.3 °C 61.9 °F /  16.6 °C 30.1in /  1017.7hPa ONO 2.9mph /  4.7km/h 4.6mph /  7.4km/h 70% 0in /  0.0mm
01:09 72.1 °F /  22.3 °C 61.9 °F /  16.6 °C 30.1in /  1017.7hPa Oeste 2.9mph /  4.7km/h 5.4mph /  8.7km/h 70% 0in /  0.0mm
01:14 72 °F /  22.2 °C 61.5 °F /  16.4 °C 30.1in /  1017.7hPa ONO 2.9mph /  4.7km/h 5.8mph /  9.3km/h 70% 0in /  0.0mm
01:19 71.8 °F /  22.1 °C 61.5 °F /  16.4 °C 30.1in /  1017.7hPa Oeste 3mph /  4.8km/h 4.6mph /  7.4km/h 70% 0in /  0.0mm
01:24 71.8 °F /  22.1 °C 61.5 °F /  16.4 °C 30.1in /  1017.7hPa OSO 3.1mph /  5km/h 2.9mph /  4.7km/h 70% 0in /  0.0mm
01:29 71.8 °F /  22.1 °C 61.5 °F /  16.4 °C 30.1in /  1017.7hPa OSO 2.6mph /  4.2km/h 2.9mph /  4.7km/h 70% 0in /  0.0mm
01:34 71.8 °F /  22.1 °C 61.5 °F /  16.4 °C 30.1in /  1017.7hPa OSO 1.8mph /  2.9km/h 3.1mph /  5km/h 70% 0in /  0.0mm
01:39 72 °F /  22.2 °C 61.5 °F /  16.4 °C 30.1in /  1017.5hPa OSO 1.8mph /  2.9km/h 3.6mph /  5.8km/h 70% 0in /  0.0mm
01:44 72 °F /  22.2 °C 61.5 °F /  16.4 °C 30.1in /  1017.5hPa OSO 1.8mph /  2.9km/h 2.9mph /  4.7km/h 70% 0in /  0.0mm
01:49 72 °F /  22.2 °C 61.3 °F /  16.3 °C 30.1in /  1017.6hPa OSO 1.7mph /  2.7km/h 2.4mph /  3.9km/h 69.4% 0in /  0.0mm
01:54 72 °F /  22.2 °C 61.2 °F /  16.2 °C 30.1in /  1017.6hPa OSO 1.4mph /  2.3km/h 2.9mph /  4.7km/h 69% 0in /  0.0mm
01:59 72 °F /  22.2 °C 61 °F /  16.1 °C 30.1in /  1017.6hPa OSO 1.4mph /  2.3km/h 2.9mph /  4.7km/h 68.6% 0in /  0.0mm
02:04 72 °F /  22.2 °C 61.2 °F /  16.2 °C 30.1in /  1017.6hPa OSO 1.4mph /  2.3km/h 3.1mph /  5km/h 68.7% 0in /  0.0mm
02:09 72 °F /  22.2 °C 60.8 °F /  16 °C 30.1in /  1017.5hPa OSO 1.6mph /  2.5km/h 4.6mph /  7.4km/h 68.1% 0in /  0.0mm
02:14 71.8 °F /  22.1 °C 60.8 °F /  16 °C 30.1in /  1017.5hPa Oeste 1.8mph /  2.9km/h 4.6mph /  7.4km/h 68.5% 0in /  0.0mm
02:19 71.8 °F /  22.1 °C 61.2 °F /  16.2 °C 30.1in /  1017.5hPa NNO 2mph /  3.2km/h 4.6mph /  7.4km/h 69% 0in /  0.0mm
02:24 71.8 °F /  22.1 °C 61.2 °F /  16.2 °C 30in /  1017.4hPa NNO 2.4mph /  3.9km/h 3.6mph /  5.8km/h 69% 0in /  0.0mm
02:29 71.6 °F /  22 °C 60.6 °F /  15.9 °C 30in /  1017.4hPa NO 2.2mph /  3.5km/h 3.5mph /  5.6km/h 68.1% 0in /  0.0mm
02:34 71.4 °F /  21.9 °C 60.3 °F /  15.7 °C 30in /  1017.4hPa NO 1.8mph /  2.9km/h 2.9mph /  4.7km/h 68% 0in /  0.0mm
02:39 71.4 °F /  21.9 °C 60.3 °F /  15.7 °C 30in /  1017.2hPa NO 1.8mph /  2.9km/h 2.4mph /  3.9km/h 68% 0in /  0.0mm
02:44 71.4 °F /  21.9 °C 60.3 °F /  15.7 °C 30in /  1017.2hPa NO 1.8mph /  2.9km/h 2.9mph /  4.7km/h 68% 0in /  0.0mm
02:49 71.2 °F /  21.8 °C 60.3 °F /  15.7 °C 30in /  1017.2hPa NO 1.6mph /  2.6km/h 2.3mph /  3.7km/h 68% 0in /  0.0mm
02:54 71.2 °F /  21.8 °C 60.1 °F /  15.6 °C 30in /  1017.1hPa NO 1.4mph /  2.3km/h 2.3mph /  3.7km/h 68% 0in /  0.0mm
02:59 71.2 °F /  21.8 °C 60.3 °F /  15.7 °C 30in /  1017.1hPa NO 0.9mph /  1.4km/h 2.9mph /  4.7km/h 68.3% 0in /  0.0mm
03:04 71.2 °F /  21.8 °C 61.3 °F /  16.3 °C 30in /  1017.1hPa Calm   3.6mph /  5.8km/h 70.8% 0in /  0.0mm
03:09 71.2 °F /  21.8 °C 61.9 °F /  16.6 °C 30in /  1017.0hPa Este 0.7mph /  1.2km/h 4.6mph /  7.4km/h 72.3% 0in /  0.0mm
03:14 71.2 °F /  21.8 °C 62.1 °F /  16.7 °C 30in /  1017.0hPa Este 2mph /  3.2km/h 3.6mph /  5.8km/h 73% 0in /  0.0mm
03:19 71.2 °F /  21.8 °C 62.2 °F /  16.8 °C 30in /  1017.0hPa Este 1.9mph /  3.1km/h 3.6mph /  5.8km/h 73.5% 0in /  0.0mm
03:24 71.1 °F /  21.7 °C 62.4 °F /  16.9 °C 30in /  1016.8hPa ESE 1.8mph /  2.9km/h 4.6mph /  7.4km/h 74% 0in /  0.0mm
03:29 71.1 °F /  21.7 °C 62.4 °F /  16.9 °C 30in /  1016.8hPa SE 2.1mph /  3.3km/h 4mph /  6.4km/h 74% 0in /  0.0mm
03:34 70.9 °F /  21.6 °C 62.2 °F /  16.8 °C 30in /  1016.8hPa SE 2.4mph /  3.9km/h 5.2mph /  8.4km/h 74% 0in /  0.0mm
03:39 70.9 °F /  21.6 °C 62.2 °F /  16.8 °C 30in /  1016.7hPa SE 2.6mph /  4.2km/h 5.8mph /  9.3km/h 74% 0in /  0.0mm
03:44 70.9 °F /  21.6 °C 62.2 °F /  16.8 °C 30in /  1016.7hPa SSE 2.9mph /  4.7km/h 5.9mph /  9.5km/h 74% 0in /  0.0mm
03:49 70.7 °F /  21.5 °C 62.1 °F /  16.7 °C 30in /  1016.7hPa Sur 3.3mph /  5.3km/h 6.2mph /  10km/h 74% 0in /  0.0mm
03:54 70.7 °F /  21.5 °C 61.9 °F /  16.6 °C 30in /  1016.7hPa Sur 4mph /  6.4km/h 5.2mph /  8.4km/h 73.8% 0in /  0.0mm
03:59 70.7 °F /  21.5 °C 61.5 °F /  16.4 °C 30in /  1016.7hPa SO 3.7mph /  5.9km/h 5.4mph /  8.7km/h 73% 0in /  0.0mm
04:04 70.7 °F /  21.5 °C 61.5 °F /  16.4 °C 30in /  1016.7hPa SO 3.1mph /  5km/h 5.9mph /  9.5km/h 73% 0in /  0.0mm
04:09 70.7 °F /  21.5 °C 61.5 °F /  16.4 °C 30in /  1016.7hPa SO 3.1mph /  5km/h 4.7mph /  7.6km/h 73% 0in /  0.0mm
04:14 70.7 °F /  21.5 °C 61.5 °F /  16.4 °C 30in /  1016.7hPa SO 3.1mph /  5km/h 5.2mph /  8.4km/h 73% 0in /  0.0mm
04:19 70.7 °F /  21.5 °C 61.5 °F /  16.4 °C 30in /  1016.7hPa SO 3.1mph /  5km/h 4.7mph /  7.6km/h 73% 0in /  0.0mm
04:24 70.7 °F /  21.5 °C 61.5 °F /  16.4 °C 30in /  1016.7hPa OSO 3.1mph /  5km/h 4.6mph /  7.4km/h 73% 0in /  0.0mm
04:29 70.5 °F /  21.4 °C 61.3 °F /  16.3 °C 30in /  1016.7hPa OSO 3mph /  4.9km/h 5.2mph /  8.4km/h 73% 0in /  0.0mm
04:34 70.5 °F /  21.4 °C 61.3 °F /  16.3 °C 30in /  1016.8hPa OSO 2.9mph /  4.7km/h 4.6mph /  7.4km/h 73% 0in /  0.0mm
04:39 70.3 °F /  21.3 °C 61.3 °F /  16.3 °C 30in /  1016.8hPa SO 2.9mph /  4.7km/h 3.6mph /  5.8km/h 73.1% 0in /  0.0mm
04:44 70.3 °F /  21.3 °C 61.3 °F /  16.3 °C 30in /  1016.8hPa SSO 2.9mph /  4.7km/h 4.7mph /  7.6km/h 73.3% 0in /  0.0mm
04:49 70.3 °F /  21.3 °C 61.3 °F /  16.3 °C 30in /  1016.8hPa SSO 2.9mph /  4.7km/h 5.2mph /  8.4km/h 73% 0in /  0.0mm
04:54 70.3 °F /  21.3 °C 61.3 °F /  16.3 °C 30in /  1016.8hPa SSO 2.9mph /  4.7km/h 5.2mph /  8.4km/h 73% 0in /  0.0mm
04:59 70.5 °F /  21.4 °C 61.3 °F /  16.3 °C 30in /  1016.8hPa SSO 3.2mph /  5.1km/h 5.8mph /  9.3km/h 73% 0in /  0.0mm
05:04 70.5 °F /  21.4 °C 61.3 °F /  16.3 °C 30in /  1016.8hPa SSO 3.6mph /  5.8km/h 5.8mph /  9.3km/h 73% 0in /  0.0mm
05:09 70.5 °F /  21.4 °C 61.3 °F /  16.3 °C 30in /  1016.8hPa SO 3.4mph /  5.5km/h 5.2mph /  8.4km/h 72.6% 0in /  0.0mm
05:14 70.7 °F /  21.5 °C 61.2 °F /  16.2 °C 30in /  1016.8hPa SO 3.1mph /  5km/h 5.9mph /  9.5km/h 72% 0in /  0.0mm
05:19 70.7 °F /  21.5 °C 60.8 °F /  16 °C 30in /  1016.9hPa SO 3.1mph /  5km/h 6.2mph /  10km/h 71.1% 0in /  0.0mm
05:24 70.9 °F /  21.6 °C 61 °F /  16.1 °C 30in /  1016.9hPa SO 3.1mph /  5km/h 5.8mph /  9.3km/h 71% 0in /  0.0mm
05:29 70.9 °F /  21.6 °C 61 °F /  16.1 °C 30in /  1016.9hPa SO 3.1mph /  5km/h 6.2mph /  10km/h 71% 0in /  0.0mm
05:34 70.9 °F /  21.6 °C 61 °F /  16.1 °C 30in /  1016.9hPa SSO 3.1mph /  5km/h 6.9mph /  11.1km/h 71% 0in /  0.0mm
05:39 70.7 °F /  21.5 °C 60.8 °F /  16 °C 30in /  1016.8hPa Sur 3.5mph /  5.7km/h 6.9mph /  11.1km/h 71.1% 0in /  0.0mm
05:44 70.5 °F /  21.4 °C 61 °F /  16.1 °C 30in /  1016.8hPa SSO 4.3mph /  6.9km/h 7.4mph /  11.9km/h 72% 0in /  0.0mm
05:49 70.3 °F /  21.3 °C 61 °F /  16.1 °C 30in /  1016.8hPa SSO 4.3mph /  6.9km/h 5.9mph /  9.5km/h 72% 0in /  0.0mm
05:54 70.2 °F /  21.2 °C 60.8 °F /  16 °C 30in /  1016.8hPa SSO 4.3mph /  6.9km/h 7.4mph /  11.9km/h 72% 0in /  0.0mm
05:59 70.2 °F /  21.2 °C 61 °F /  16.1 °C 30in /  1016.8hPa SO 4.3mph /  6.9km/h 5.9mph /  9.5km/h 72.9% 0in /  0.0mm
06:04 70.2 °F /  21.2 °C 60.8 °F /  16 °C 30in /  1016.8hPa OSO 4.3mph /  6.9km/h 5.9mph /  9.5km/h 72.3% 0in /  0.0mm
06:09 70 °F /  21.1 °C 60.4 °F /  15.8 °C 30in /  1016.8hPa SO 4.2mph /  6.7km/h 5.9mph /  9.5km/h 72% 0in /  0.0mm
06:14 70 °F /  21.1 °C 60.4 °F /  15.8 °C 30in /  1016.8hPa SO 4mph /  6.4km/h 5.9mph /  9.5km/h 72% 0in /  0.0mm
06:19 70 °F /  21.1 °C 60.8 °F /  16 °C 30in /  1016.8hPa OSO 4mph /  6.4km/h 5.8mph /  9.3km/h 72.7% 0in /  0.0mm
06:24 70 °F /  21.1 °C 61 °F /  16.1 °C 30in /  1016.8hPa OSO 4mph /  6.4km/h 5.8mph /  9.3km/h 73% 0in /  0.0mm
06:29 70 °F /  21.1 °C 61 °F /  16.1 °C 30in /  1016.8hPa SO 3.7mph /  5.9km/h 5.8mph /  9.3km/h 73% 0in /  0.0mm
06:34 70 °F /  21.1 °C 61 °F /  16.1 °C 30in /  1016.8hPa SO 3.1mph /  5km/h 4.7mph /  7.6km/h 73% 0in /  0.0mm
06:39 70 °F /  21.1 °C 61 °F /  16.1 °C 30in /  1016.8hPa OSO 3.1mph /  5km/h 5.2mph /  8.4km/h 73% 0in /  0.0mm
06:44 69.8 °F /  21 °C 60.8 °F /  16 °C 30in /  1016.8hPa SO 3.1mph /  5km/h 5.8mph /  9.3km/h 72.9% 0in /  0.0mm
06:49 69.8 °F /  21 °C 60.4 °F /  15.8 °C 30in /  1016.8hPa SO 3.3mph /  5.3km/h 6.2mph /  10km/h 72% 0in /  0.0mm
06:54 69.6 °F /  20.9 °C 60.3 °F /  15.7 °C 30in /  1016.8hPa SO 3.6mph /  5.8km/h 5.9mph /  9.5km/h 72% 0in /  0.0mm
06:59 69.6 °F /  20.9 °C 60.3 °F /  15.7 °C 30in /  1016.8hPa SO 3.6mph /  5.8km/h 4.7mph /  7.6km/h 72% 0in /  0.0mm
07:04 69.6 °F /  20.9 °C 60.3 °F /  15.7 °C 30in /  1016.8hPa SSO 3.6mph /  5.8km/h 4.6mph /  7.4km/h 72% 0in /  0.0mm
07:09 69.6 °F /  20.9 °C 60.3 °F /  15.7 °C 30in /  1016.7hPa Sur 3.4mph /  5.4km/h 4.7mph /  7.6km/h 72.4% 0in /  0.0mm
07:14 69.6 °F /  20.9 °C 60.6 °F /  15.9 °C 30in /  1016.7hPa Sur 2.9mph /  4.7km/h 6.2mph /  10km/h 73% 0in /  0.0mm
07:19 69.4 °F /  20.8 °C 60.4 °F /  15.8 °C 30in /  1016.8hPa SSO 3.3mph /  5.3km/h 6.9mph /  11.1km/h 72.9% 0in /  0.0mm
07:24 69.4 °F /  20.8 °C 60.1 °F /  15.6 °C 30in /  1016.8hPa SSO 4mph /  6.4km/h 8.1mph /  13km/h 72% 0in /  0.0mm
07:29 69.4 °F /  20.8 °C 60.1 °F /  15.6 °C 30in /  1016.8hPa SO 4.1mph /  6.6km/h 6.2mph /  10km/h 72% 0in /  0.0mm
07:34 69.4 °F /  20.8 °C 60.1 °F /  15.6 °C 30in /  1016.9hPa SO 4.3mph /  6.9km/h 5.9mph /  9.5km/h 72% 0in /  0.0mm
07:39 69.4 °F /  20.8 °C 60.1 °F /  15.6 °C 30in /  1016.9hPa SO 3.8mph /  6.1km/h 6.4mph /  10.3km/h 72.1% 0in /  0.0mm
07:44 69.6 °F /  20.9 °C 60.6 °F /  15.9 °C 30in /  1016.9hPa OSO 2.9mph /  4.7km/h 6.9mph /  11.1km/h 73% 0in /  0.0mm
07:49 69.6 °F /  20.9 °C 60.6 °F /  15.9 °C 30in /  1017.0hPa SO 3.3mph /  5.3km/h 7.4mph /  11.9km/h 73% 0in /  0.0mm
07:54 69.6 °F /  20.9 °C 60.6 °F /  15.9 °C 30in /  1017.0hPa SO 4mph /  6.4km/h 6.9mph /  11.1km/h 73% 0in /  0.0mm
07:59 69.6 °F /  20.9 °C 60.6 °F /  15.9 °C 30in /  1017.0hPa SO 4mph /  6.4km/h 6.9mph /  11.1km/h 73% 0in /  0.0mm
08:04 69.6 °F /  20.9 °C 60.8 °F /  16 °C 30in /  1017.2hPa SO 4mph /  6.4km/h 6.2mph /  10km/h 73.4% 0in /  0.0mm
08:09 69.6 °F /  20.9 °C 60.6 °F /  15.9 °C 30in /  1017.2hPa SO 3.7mph /  5.9km/h 5.8mph /  9.3km/h 73.2% 0in /  0.0mm
08:14 69.6 °F /  20.9 °C 60.6 °F /  15.9 °C 30in /  1017.2hPa SO 3.1mph /  5km/h 6.9mph /  11.1km/h 73% 0in /  0.0mm
08:19 69.6 °F /  20.9 °C 60.4 °F /  15.8 °C 30in /  1017.2hPa SO 3.3mph /  5.3km/h 5.8mph /  9.3km/h 72.6% 0in /  0.0mm
08:24 69.6 °F /  20.9 °C 60.3 °F /  15.7 °C 30in /  1017.2hPa SO 3.6mph /  5.8km/h 6.2mph /  10km/h 71.9% 0in /  0.0mm
08:29 69.8 °F /  21 °C 59.9 °F /  15.5 °C 30in /  1017.2hPa Sur 3.6mph /  5.8km/h 6.2mph /  10km/h 70.8% 0in /  0.0mm
08:34 69.8 °F /  21 °C 59.9 °F /  15.5 °C 30in /  1017.4hPa Sur 3.6mph /  5.8km/h 4.6mph /  7.4km/h 70.5% 0in /  0.0mm
08:39 70 °F /  21.1 °C 60.1 °F /  15.6 °C 30in /  1017.4hPa Sur 3.4mph /  5.4km/h 5.2mph /  8.4km/h 71% 0in /  0.0mm
08:44 70.2 °F /  21.2 °C 60.3 °F /  15.7 °C 30in /  1017.4hPa SSO 2.9mph /  4.7km/h 4.7mph /  7.6km/h 71% 0in /  0.0mm
08:49 70.2 °F /  21.2 °C 60.1 °F /  15.6 °C 30in /  1017.4hPa SSO 3.2mph /  5.1km/h 5.9mph /  9.5km/h 70.3% 0in /  0.0mm
08:54 70.3 °F /  21.3 °C 60.1 °F /  15.6 °C 30in /  1017.4hPa SO 3.6mph /  5.8km/h 6.4mph /  10.3km/h 69.9% 0in /  0.0mm
08:59 70.3 °F /  21.3 °C 59.7 °F /  15.4 °C 30in /  1017.4hPa SSO 3.4mph /  5.5km/h 6.9mph /  11.1km/h 69% 0in /  0.0mm
09:04 70.5 °F /  21.4 °C 59.9 °F /  15.5 °C 30.1in /  1017.6hPa SSO 3.1mph /  5km/h 6.9mph /  11.1km/h 69% 0in /  0.0mm
09:09 70.5 °F /  21.4 °C 59.9 °F /  15.5 °C 30.1in /  1017.6hPa SSO 3.5mph /  5.7km/h 8.1mph /  13km/h 68.8% 0in /  0.0mm
09:14 70.7 °F /  21.5 °C 59.9 °F /  15.5 °C 30.1in /  1017.6hPa SSO 4.3mph /  6.9km/h 8.1mph /  13km/h 69% 0in /  0.0mm
09:19 70.9 °F /  21.6 °C 60.1 °F /  15.6 °C 30.1in /  1017.6hPa SSO 4.3mph /  6.9km/h 7.4mph /  11.9km/h 68.6% 0in /  0.0mm
09:24 71.1 °F /  21.7 °C 59.9 °F /  15.5 °C 30.1in /  1017.5hPa Sur 4.3mph /  6.9km/h 8.1mph /  13km/h 68% 0in /  0.0mm
09:29 71.1 °F /  21.7 °C 60.1 °F /  15.6 °C 30.1in /  1017.5hPa SSO 4.7mph /  7.5km/h 7.4mph /  11.9km/h 68% 0in /  0.0mm
09:34 71.2 °F /  21.8 °C 60.1 °F /  15.6 °C 30.1in /  1017.7hPa SSO 5.2mph /  8.4km/h 5.8mph /  9.3km/h 68% 0in /  0.0mm
09:39 71.4 °F /  21.9 °C 60.1 °F /  15.6 °C 30.1in /  1017.7hPa SO 4.8mph /  7.7km/h 5.9mph /  9.5km/h 67.4% 0in /  0.0mm
09:44 71.6 °F /  22 °C 60.1 °F /  15.6 °C 30.1in /  1017.7hPa SO 4mph /  6.4km/h 6.2mph /  10km/h 67.3% 0in /  0.0mm
09:49 72 °F /  22.2 °C 60.4 °F /  15.8 °C 30.1in /  1017.7hPa SSO 3.9mph /  6.2km/h 6.9mph /  11.1km/h 67% 0in /  0.0mm
09:54 72.1 °F /  22.3 °C 60.6 °F /  15.9 °C 30.1in /  1017.7hPa SSO 3.6mph /  5.8km/h 6.2mph /  10km/h 67% 0in /  0.0mm
09:59 72.3 °F /  22.4 °C 60.6 °F /  15.9 °C 30.1in /  1017.7hPa SO 3.9mph /  6.3km/h 7.6mph /  12.2km/h 67% 0in /  0.0mm
10:04 72.5 °F /  22.5 °C 60.8 °F /  16 °C 30.1in /  1018.0hPa OSO 4.3mph /  6.9km/h 8.1mph /  13km/h 66.9% 0in /  0.0mm
10:09 72.7 °F /  22.6 °C 60.8 °F /  16 °C 30.1in /  1018.0hPa OSO 4.3mph /  6.9km/h 8.1mph /  13km/h 66.2% 0in /  0.0mm
10:14 72.9 °F /  22.7 °C 60.8 °F /  16 °C 30.1in /  1018.0hPa OSO 4.3mph /  6.9km/h 6.2mph /  10km/h 66% 0in /  0.0mm
10:19 72.9 °F /  22.7 °C 60.8 °F /  16 °C 30.1in /  1018.1hPa SO 4.2mph /  6.7km/h 6.9mph /  11.1km/h 66.1% 0in /  0.0mm
10:24 72.9 °F /  22.7 °C 61.2 °F /  16.2 °C 30.1in /  1018.1hPa OSO 4mph /  6.4km/h 5.8mph /  9.3km/h 66.7% 0in /  0.0mm
10:29 73 °F /  22.8 °C 61.2 °F /  16.2 °C 30.1in /  1018.1hPa OSO 3.6mph /  5.8km/h 6.9mph /  11.1km/h 66.3% 0in /  0.0mm
10:34 73 °F /  22.8 °C 61 °F /  16.1 °C 30.1in /  1018.1hPa Oeste 2.9mph /  4.7km/h 6.2mph /  10km/h 66% 0in /  0.0mm
10:39 73.2 °F /  22.9 °C 61.3 °F /  16.3 °C 30.1in /  1018.0hPa OSO 3.3mph /  5.3km/h 5.8mph /  9.3km/h 66.4% 0in /  0.0mm
10:44 73.4 °F /  23 °C 61.5 °F /  16.4 °C 30.1in /  1018.0hPa Oeste 4mph /  6.4km/h 3.6mph /  5.8km/h 66.2% 0in /  0.0mm
10:49 73.8 °F /  23.2 °C 61.5 °F /  16.4 °C 30.1in /  1018.1hPa Oeste 3.2mph /  5.1km/h 4.6mph /  7.4km/h 65.6% 0in /  0.0mm
10:54 74.1 °F /  23.4 °C 61.5 °F /  16.4 °C 30.1in /  1018.1hPa Sur 1.8mph /  2.9km/h 5.4mph /  8.7km/h 65% 0in /  0.0mm
10:59 74.5 °F /  23.6 °C 61.9 °F /  16.6 °C 30.1in /  1018.1hPa OSO 2.2mph /  3.6km/h 5.8mph /  9.3km/h 64.7% 0in /  0.0mm
11:04 74.7 °F /  23.7 °C 61.7 °F /  16.5 °C 30.1in /  1018.1hPa SO 2.9mph /  4.7km/h 5.2mph /  8.4km/h 64% 0in /  0.0mm
11:09 74.8 °F /  23.8 °C 61.9 °F /  16.6 °C 30.1in /  1018.1hPa SSO 2.7mph /  4.4km/h 4.7mph /  7.6km/h 64% 0in /  0.0mm
11:14 75 °F /  23.9 °C 62.1 °F /  16.7 °C 30.1in /  1018.1hPa SSE 2.4mph /  3.9km/h 4.6mph /  7.4km/h 64% 0in /  0.0mm
11:19 75.4 °F /  24.1 °C 62.1 °F /  16.7 °C 30.1in /  1018.1hPa Oeste 2.2mph /  3.5km/h 4.6mph /  7.4km/h 63.2% 0in /  0.0mm
11:24 75.7 °F /  24.3 °C 62.1 °F /  16.7 °C 30.1in /  1018.1hPa NO 1.8mph /  2.9km/h 4.7mph /  7.6km/h 62.9% 0in /  0.0mm
11:29 75.9 °F /  24.4 °C 62.2 °F /  16.8 °C 30.1in /  1018.1hPa Oeste 1.9mph /  3km/h 4.6mph /  7.4km/h 62.8% 0in /  0.0mm
11:34 76.1 °F /  24.5 °C 62.4 °F /  16.9 °C 30.1in /  1018.1hPa SSO 2mph /  3.2km/h 4mph /  6.4km/h 62.6% 0in /  0.0mm
11:39 76.5 °F /  24.7 °C 62.4 °F /  16.9 °C 30.1in /  1018.0hPa Oeste 2.1mph /  3.4km/h 4.6mph /  7.4km/h 62% 0in /  0.0mm
11:44 76.5 °F /  24.7 °C 62.6 °F /  17 °C 30.1in /  1018.0hPa Oeste 2.4mph /  3.9km/h 4.7mph /  7.6km/h 62% 0in /  0.0mm
11:49 76.6 °F /  24.8 °C 62.6 °F /  17 °C 30.1in /  1018.0hPa North 2.2mph /  3.6km/h 4.7mph /  7.6km/h 62% 0in /  0.0mm
11:54 77.4 °F /  25.2 °C 62.8 °F /  17.1 °C 30.1in /  1018.0hPa NNE 2mph /  3.2km/h 6.9mph /  11.1km/h 61% 0in /  0.0mm
11:59 77.7 °F /  25.4 °C 62.2 °F /  16.8 °C 30.1in /  1018.0hPa NNO 2.5mph /  4km/h 6.9mph /  11.1km/h 59% 0in /  0.0mm
12:04 77.9 °F /  25.5 °C 62.1 °F /  16.7 °C 30.1in /  1018.0hPa ONO 3.1mph /  5km/h 5.8mph /  9.3km/h 58.4% 0in /  0.0mm
12:09 78.3 °F /  25.7 °C 62.6 °F /  17 °C 30.1in /  1017.9hPa North 3mph /  4.9km/h 5.8mph /  9.3km/h 58.7% 0in /  0.0mm
12:14 78.4 °F /  25.8 °C 62.4 °F /  16.9 °C 30.1in /  1017.9hPa ENE 2.9mph /  4.7km/h 5.9mph /  9.5km/h 58.2% 0in /  0.0mm
12:19 78.6 °F /  25.9 °C 62.8 °F /  17.1 °C 30.1in /  1017.9hPa SSE 2.9mph /  4.7km/h 4.7mph /  7.6km/h 58.5% 0in /  0.0mm
12:24 79.2 °F /  26.2 °C 63.1 °F /  17.3 °C 30.1in /  1017.8hPa NE 2.9mph /  4.7km/h 6.9mph /  11.1km/h 58% 0in /  0.0mm
12:29 79.2 °F /  26.2 °C 63 °F /  17.2 °C 30.1in /  1017.8hPa Este 3.2mph /  5.1km/h 10mph /  16.1km/h 58% 0in /  0.0mm
12:34 79 °F /  26.1 °C 63 °F /  17.2 °C 30.1in /  1017.8hPa ENE 3.6mph /  5.8km/h 10.4mph /  16.7km/h 58% 0in /  0.0mm
12:39 78.8 °F /  26 °C 62.6 °F /  17 °C 30.1in /  1017.5hPa ESE 4mph /  6.5km/h 8.5mph /  13.7km/h 57.5% 0in /  0.0mm
12:44 78.8 °F /  26 °C 62.6 °F /  17 °C 30.1in /  1017.5hPa SO 4.7mph /  7.6km/h 6.9mph /  11.1km/h 57.7% 0in /  0.0mm
12:49 79.2 °F /  26.2 °C 62.8 °F /  17.1 °C 30.1in /  1017.5hPa NE 4.4mph /  7.1km/h 6.9mph /  11.1km/h 57.5% 0in /  0.0mm
12:54 79.3 °F /  26.3 °C 62.8 °F /  17.1 °C 30in /  1017.3hPa North 4mph /  6.4km/h 7.4mph /  11.9km/h 57% 0in /  0.0mm
12:59 79.5 °F /  26.4 °C 63 °F /  17.2 °C 30in /  1017.3hPa NNO 3.6mph /  5.8km/h 6.4mph /  10.3km/h 57% 0in /  0.0mm
13:04 80.1 °F /  26.7 °C 63 °F /  17.2 °C 30in /  1017.3hPa NE 3.1mph /  5km/h 6.9mph /  11.1km/h 56% 0in /  0.0mm
13:09 80.4 °F /  26.9 °C 63 °F /  17.2 °C 30in /  1017.1hPa NNE 3mph /  4.9km/h 8.7mph /  14km/h 55.5% 0in /  0.0mm
13:14 80.2 °F /  26.8 °C 62.8 °F /  17.1 °C 30in /  1017.1hPa NE 2.9mph /  4.7km/h 10mph /  16.1km/h 55% 0in /  0.0mm
13:19 80.2 °F /  26.8 °C 62.8 °F /  17.1 °C 30in /  1017.1hPa North 3.6mph /  5.8km/h 8.5mph /  13.7km/h 55.4% 0in /  0.0mm
13:24 80.2 °F /  26.8 °C 62.8 °F /  17.1 °C 30in /  1016.9hPa NNE 4.7mph /  7.6km/h 9.7mph /  15.6km/h 55.5% 0in /  0.0mm
13:29 80.2 °F /  26.8 °C 63 °F /  17.2 °C 30in /  1016.9hPa North 5mph /  8km/h 9.2mph /  14.8km/h 55.6% 0in /  0.0mm
13:34 80.4 °F /  26.9 °C 62.8 °F /  17.1 °C 30in /  1016.9hPa ONO 5.4mph /  8.7km/h 5.9mph /  9.5km/h 55.2% 0in /  0.0mm
13:39 80.8 °F /  27.1 °C 62.8 °F /  17.1 °C 30in /  1016.6hPa NE 4.5mph /  7.2km/h 8.1mph /  13km/h 54.3% 0in /  0.0mm
13:44 81.1 °F /  27.3 °C 62.6 °F /  17 °C 30in /  1016.6hPa NE 2.9mph /  4.7km/h 6.9mph /  11.1km/h 53.5% 0in /  0.0mm
13:49 81.3 °F /  27.4 °C 62.6 °F /  17 °C 30in /  1016.6hPa NNO 3.3mph /  5.3km/h 6.2mph /  10km/h 53% 0in /  0.0mm
13:54 81.7 °F /  27.6 °C 62.4 °F /  16.9 °C 30in /  1016.5hPa Este 4mph /  6.4km/h 6.9mph /  11.1km/h 52.3% 0in /  0.0mm
13:59 81.9 °F /  27.7 °C 62.4 °F /  16.9 °C 30in /  1016.5hPa Este 4mph /  6.4km/h 11.8mph /  19km/h 51.8% 0in /  0.0mm
14:04 81.7 °F /  27.6 °C 62.4 °F /  16.9 °C 30in /  1016.5hPa Este 4mph /  6.4km/h 11.5mph /  18.5km/h 52% 0in /  0.0mm
14:09 81.9 °F /  27.7 °C 62.4 °F /  16.9 °C 30in /  1016.3hPa NNE 4.2mph /  6.8km/h 12.7mph /  20.4km/h 51.9% 0in /  0.0mm
14:14 81.9 °F /  27.7 °C 62.4 °F /  16.9 °C 30in /  1016.3hPa NNE 4.7mph /  7.6km/h 11.8mph /  19km/h 52% 0in /  0.0mm
14:19 81.9 °F /  27.7 °C 62.4 °F /  16.9 °C 30in /  1016.3hPa NNE 5.2mph /  8.3km/h 8.1mph /  13km/h 51.6% 0in /  0.0mm
14:24 82 °F /  27.8 °C 62.2 °F /  16.8 °C 30in /  1016.1hPa NNO 5.9mph /  9.5km/h 9.7mph /  15.6km/h 51.2% 0in /  0.0mm
14:29 82 °F /  27.8 °C 62.2 °F /  16.8 °C 30in /  1016.1hPa North 5.7mph /  9.1km/h 7.6mph /  12.2km/h 51% 0in /  0.0mm
14:34 82.4 °F /  28 °C 62.2 °F /  16.8 °C 30in /  1016.1hPa Este 5.2mph /  8.4km/h 10.4mph /  16.7km/h 50.7% 0in /  0.0mm
14:39 82.8 °F /  28.2 °C 62.6 °F /  17 °C 30in /  1015.9hPa NE 5.2mph /  8.4km/h 10.4mph /  16.7km/h 50.9% 0in /  0.0mm
14:44 83.1 °F /  28.4 °C 62.6 °F /  17 °C 30in /  1015.9hPa ENE 5.2mph /  8.4km/h 9.7mph /  15.6km/h 50.1% 0in /  0.0mm
14:49 83.1 °F /  28.4 °C 62.4 °F /  16.9 °C 30in /  1015.9hPa Este 5.7mph /  9.1km/h 12.7mph /  20.4km/h 49.8% 0in /  0.0mm
14:54 82.9 °F /  28.3 °C 62.8 °F /  17.1 °C 30in /  1015.6hPa NE 6.4mph /  10.3km/h 9.7mph /  15.6km/h 50.7% 0in /  0.0mm
14:59 83.3 °F /  28.5 °C 62.4 °F /  16.9 °C 30in /  1015.6hPa NE 6.8mph /  11km/h 15mph /  24.1km/h 49.5% 0in /  0.0mm
15:04 82.8 °F /  28.2 °C 62.6 °F /  17 °C 30in /  1015.6hPa ENE 7.4mph /  11.9km/h 15mph /  24.1km/h 50.7% 0in /  0.0mm
15:09 82.9 °F /  28.3 °C 63 °F /  17.2 °C 30in /  1015.4hPa NE 7.6mph /  12.3km/h 13.8mph /  22.2km/h 51% 0in /  0.0mm
15:14 82.8 °F /  28.2 °C 62.8 °F /  17.1 °C 30in /  1015.4hPa NE 8.1mph /  13km/h 15mph /  24.1km/h 51.1% 0in /  0.0mm
15:19 82.6 °F /  28.1 °C 63.1 °F /  17.3 °C 30in /  1015.4hPa ENE 8.3mph /  13.3km/h 17.5mph /  28.2km/h 52% 0in /  0.0mm
15:24 82.8 °F /  28.2 °C 63.3 °F /  17.4 °C 30in /  1015.2hPa NE 8.5mph /  13.7km/h 17.3mph /  27.8km/h 52% 0in /  0.0mm
15:29 83.1 °F /  28.4 °C 63.5 °F /  17.5 °C 30in /  1015.2hPa ENE 8.2mph /  13.2km/h 13.8mph /  22.2km/h 51.8% 0in /  0.0mm
15:34 83.1 °F /  28.4 °C 63.3 °F /  17.4 °C 30in /  1015.2hPa ENE 7.6mph /  12.2km/h 15mph /  24.1km/h 51.3% 0in /  0.0mm
15:39 82.9 °F /  28.3 °C 63.1 °F /  17.3 °C 30in /  1015.2hPa NE 8mph /  12.8km/h 15.2mph /  24.5km/h 51% 0in /  0.0mm
15:44 82.8 °F /  28.2 °C 63 °F /  17.2 °C 30in /  1015.2hPa NE 8.5mph /  13.7km/h 15mph /  24.1km/h 51.3% 0in /  0.0mm
15:49 82.9 °F /  28.3 °C 63.3 °F /  17.4 °C 30in /  1015.2hPa NE 8.6mph /  13.8km/h 15.6mph /  25.1km/h 51.7% 0in /  0.0mm
15:54 82.9 °F /  28.3 °C 63.1 °F /  17.3 °C 30in /  1014.9hPa ENE 8.7mph /  14km/h 16.1mph /  25.9km/h 51.4% 0in /  0.0mm
15:59 82.9 °F /  28.3 °C 63.1 °F /  17.3 °C 30in /  1014.9hPa ENE 8.7mph /  14km/h 14mph /  22.5km/h 51.6% 0in /  0.0mm
16:04 82.8 °F /  28.2 °C 63 °F /  17.2 °C 30in /  1014.9hPa NE 8.7mph /  14km/h 18.4mph /  29.6km/h 51.2% 0in /  0.0mm
16:09 82.4 °F /  28 °C 63 °F /  17.2 °C 30in /  1014.8hPa ENE 8.7mph /  14km/h 16.1mph /  25.9km/h 52% 0in /  0.0mm
16:14 82.4 °F /  28 °C 63 °F /  17.2 °C 30in /  1014.8hPa ENE 8.7mph /  14km/h 14.5mph /  23.3km/h 52% 0in /  0.0mm
16:19 82.8 °F /  28.2 °C 63.1 °F /  17.3 °C 30in /  1014.8hPa NE 8.3mph /  13.4km/h 15mph /  24.1km/h 51.7% 0in /  0.0mm
16:24 82.8 °F /  28.2 °C 63.3 °F /  17.4 °C 30in /  1014.7hPa NE 7.6mph /  12.2km/h 13.8mph /  22.2km/h 52% 0in /  0.0mm
16:29 82.8 °F /  28.2 °C 63.3 °F /  17.4 °C 30in /  1014.7hPa NE 7.8mph /  12.5km/h 17.3mph /  27.8km/h 51.9% 0in /  0.0mm
16:34 82.6 °F /  28.1 °C 63.3 °F /  17.4 °C 30in /  1014.7hPa ENE 8.1mph /  13km/h 14mph /  22.5km/h 52.3% 0in /  0.0mm
16:39 82.6 °F /  28.1 °C 63.5 °F /  17.5 °C 30in /  1014.5hPa Este 8.7mph /  14km/h 13.8mph /  22.2km/h 52.9% 0in /  0.0mm
16:44 82.8 °F /  28.2 °C 63.5 °F /  17.5 °C 30in /  1014.5hPa ENE 9.7mph /  15.6km/h 14.5mph /  23.3km/h 52.2% 0in /  0.0mm
16:49 82.8 °F /  28.2 °C 63.3 °F /  17.4 °C 30in /  1014.6hPa Este 8.8mph /  14.2km/h 15mph /  24.1km/h 52% 0in /  0.0mm
16:54 82.4 °F /  28 °C 63.1 °F /  17.3 °C 30in /  1014.6hPa NE 7.4mph /  11.9km/h 13mph /  20.9km/h 52.3% 0in /  0.0mm
16:59 82 °F /  27.8 °C 63.5 °F /  17.5 °C 30in /  1014.6hPa ENE 7.5mph /  12km/h 11.8mph /  19km/h 53.6% 0in /  0.0mm
17:04 81.7 °F /  27.6 °C 63.3 °F /  17.4 °C 30in /  1014.6hPa NE 7.6mph /  12.2km/h 14mph /  22.5km/h 54% 0in /  0.0mm
17:09 81 °F /  27.2 °C 63.1 °F /  17.3 °C 30in /  1014.4hPa ENE 7.8mph /  12.5km/h 16.1mph /  25.9km/h 54.6% 0in /  0.0mm
17:14 80.8 °F /  27.1 °C 63.3 °F /  17.4 °C 30in /  1014.4hPa Este 8.1mph /  13km/h 13.8mph /  22.2km/h 55.7% 0in /  0.0mm
17:19 80.4 °F /  26.9 °C 63.3 °F /  17.4 °C 30in /  1014.6hPa Este 7.9mph /  12.7km/h 13.8mph /  22.2km/h 56% 0in /  0.0mm
17:24 80.2 °F /  26.8 °C 63.5 °F /  17.5 °C 30in /  1014.6hPa Este 7.6mph /  12.2km/h 11.5mph /  18.5km/h 56.7% 0in /  0.0mm
17:29 80.1 °F /  26.7 °C 63.5 °F /  17.5 °C 30in /  1014.6hPa Este 7.3mph /  11.8km/h 11.5mph /  18.5km/h 57% 0in /  0.0mm
17:34 80.1 °F /  26.7 °C 63.7 °F /  17.6 °C 30in /  1014.7hPa Este 6.9mph /  11.1km/h 14mph /  22.5km/h 57.5% 0in /  0.0mm
17:39 79.9 °F /  26.6 °C 63.3 °F /  17.4 °C 30in /  1014.7hPa ESE 6.7mph /  10.8km/h 13.8mph /  22.2km/h 57.2% 0in /  0.0mm
17:44 79.5 °F /  26.4 °C 63 °F /  17.2 °C 30in /  1014.7hPa ESE 6.4mph /  10.3km/h 16.8mph /  27km/h 57% 0in /  0.0mm
17:49 79.3 °F /  26.3 °C 63.1 °F /  17.3 °C 30in /  1014.7hPa ESE 7.2mph /  11.6km/h 17.3mph /  27.8km/h 57.7% 0in /  0.0mm
17:54 79 °F /  26.1 °C 63.1 °F /  17.3 °C 30in /  1014.5hPa ESE 8.5mph /  13.7km/h 15.2mph /  24.5km/h 58.2% 0in /  0.0mm
17:59 78.6 °F /  25.9 °C 63.1 °F /  17.3 °C 30in /  1014.5hPa Este 8.8mph /  14.1km/h 15mph /  24.1km/h 59% 0in /  0.0mm
18:04 78.6 °F /  25.9 °C 63.1 °F /  17.3 °C 30in /  1015.1hPa Este 9.2mph /  14.8km/h 8.1mph /  13km/h 59% 0in /  0.0mm
18:09 78.4 °F /  25.8 °C 63.1 °F /  17.3 °C 30in /  1015.1hPa Este 8mph /  12.9km/h 16.1mph /  25.9km/h 59.1% 0in /  0.0mm
18:14 78.3 °F /  25.7 °C 63.3 °F /  17.4 °C 30in /  1015.1hPa Este 6.2mph /  10km/h 13.8mph /  22.2km/h 60% 0in /  0.0mm
18:19 78.3 °F /  25.7 °C 63.3 °F /  17.4 °C 30in /  1015.1hPa Este 6.2mph /  10km/h 10.4mph /  16.7km/h 60.1% 0in /  0.0mm
18:24 78.3 °F /  25.7 °C 63.7 °F /  17.6 °C 30in /  1014.9hPa ENE 6.2mph /  10km/h 10.4mph /  16.7km/h 61% 0in /  0.0mm
18:29 78.1 °F /  25.6 °C 63.5 °F /  17.5 °C 30in /  1014.9hPa NE 6.2mph /  10km/h 14.5mph /  23.3km/h 61% 0in /  0.0mm
18:34 77.7 °F /  25.4 °C 63.7 °F /  17.6 °C 30in /  1015.0hPa ENE 6.2mph /  10km/h 15mph /  24.1km/h 62% 0in /  0.0mm
18:39 77.5 °F /  25.3 °C 63.9 °F /  17.7 °C 30in /  1015.0hPa NE 7.1mph /  11.4km/h 14.7mph /  23.7km/h 63% 0in /  0.0mm
18:44 77.5 °F /  25.3 °C 64 °F /  17.8 °C 30in /  1015.0hPa NE 8.5mph /  13.7km/h 15.2mph /  24.5km/h 63.2% 0in /  0.0mm
18:49 77.5 °F /  25.3 °C 64.4 °F /  18 °C 30in /  1015.0hPa NE 8.5mph /  13.7km/h 15mph /  24.1km/h 63.9% 0in /  0.0mm
18:54 77.4 °F /  25.2 °C 64.2 °F /  17.9 °C 30in /  1015.0hPa ENE 8.5mph /  13.7km/h 11.8mph /  19km/h 64% 0in /  0.0mm
18:59 77.4 °F /  25.2 °C 64.2 °F /  17.9 °C 30in /  1015.0hPa NE 7.6mph /  12.3km/h 10.7mph /  17.2km/h 64% 0in /  0.0mm
19:04 77.4 °F /  25.2 °C 64.4 °F /  18 °C 30in /  1015.2hPa NE 6.4mph /  10.3km/h 13.8mph /  22.2km/h 64.4% 0in /  0.0mm
19:09 77.2 °F /  25.1 °C 64.4 °F /  18 °C 30in /  1015.2hPa NE 6.8mph /  10.9km/h 15.2mph /  24.5km/h 65% 0in /  0.0mm
19:14 77 °F /  25 °C 64.2 °F /  17.9 °C 30in /  1015.2hPa NE 7.4mph /  11.9km/h 14.7mph /  23.7km/h 65% 0in /  0.0mm
19:19 76.8 °F /  24.9 °C 64.2 °F /  17.9 °C 30in /  1015.3hPa NE 7.6mph /  12.3km/h 15.2mph /  24.5km/h 65% 0in /  0.0mm
19:24 76.6 °F /  24.8 °C 64.4 °F /  18 °C 30in /  1015.3hPa ENE 8.1mph /  13km/h 11.8mph /  19km/h 65.9% 0in /  0.0mm
19:29 76.6 °F /  24.8 °C 64 °F /  17.8 °C 30in /  1015.3hPa ENE 7.9mph /  12.7km/h 13mph /  20.9km/h 65.1% 0in /  0.0mm
19:34 76.6 °F /  24.8 °C 64.2 °F /  17.9 °C 30in /  1015.5hPa ENE 7.6mph /  12.2km/h 13.7mph /  22km/h 65.6% 0in /  0.0mm
19:39 76.6 °F /  24.8 °C 64.4 °F /  18 °C 30in /  1015.5hPa ENE 7.1mph /  11.5km/h 13.8mph /  22.2km/h 66% 0in /  0.0mm
19:44 76.6 °F /  24.8 °C 64.2 °F /  17.9 °C 30in /  1015.5hPa ENE 6.4mph /  10.3km/h 9.2mph /  14.8km/h 65.8% 0in /  0.0mm
19:49 76.6 °F /  24.8 °C 64.2 °F /  17.9 °C 30in /  1016.0hPa NE 5.6mph /  9km/h 8.1mph /  13km/h 65.3% 0in /  0.0mm
19:54 76.6 °F /  24.8 °C 64.4 °F /  18 °C 30in /  1016.0hPa ENE 4.3mph /  6.9km/h 10.7mph /  17.2km/h 65.9% 0in /  0.0mm
19:59 76.6 °F /  24.8 °C 64.4 °F /  18 °C 30in /  1016.0hPa ENE 5.4mph /  8.7km/h 13mph /  20.9km/h 66% 0in /  0.0mm
20:04 76.5 °F /  24.7 °C 64.4 °F /  18 °C 30in /  1016.0hPa Este 6.9mph /  11.1km/h 13mph /  20.9km/h 66% 0in /  0.0mm
20:09 76.5 °F /  24.7 °C 64.2 °F /  17.9 °C 30in /  1015.3hPa ENE 7.1mph /  11.5km/h 15.2mph /  24.5km/h 66% 0in /  0.0mm
20:14 76.3 °F /  24.6 °C 64.4 °F /  18 °C 30in /  1015.3hPa NE 7.6mph /  12.2km/h 13.8mph /  22.2km/h 66.6% 0in /  0.0mm
20:19 76.3 °F /  24.6 °C 64.4 °F /  18 °C 30in /  1015.7hPa NE 7mph /  11.2km/h 8.1mph /  13km/h 67% 0in /  0.0mm
20:24 76.1 °F /  24.5 °C 64.2 °F /  17.9 °C 30in /  1015.7hPa ENE 5.9mph /  9.5km/h 8.1mph /  13km/h 67% 0in /  0.0mm
20:29 75.9 °F /  24.4 °C 64.2 °F /  17.9 °C 30in /  1015.7hPa NE 5.5mph /  8.8km/h 9.2mph /  14.8km/h 67% 0in /  0.0mm
20:34 75.9 °F /  24.4 °C 64.2 °F /  17.9 °C 30in /  1015.7hPa NE 4.7mph /  7.6km/h 7.6mph /  12.2km/h 67% 0in /  0.0mm
20:39 75.9 °F /  24.4 °C 64.2 °F /  17.9 °C 30in /  1015.4hPa NE 4.9mph /  7.9km/h 10.7mph /  17.2km/h 66.9% 0in /  0.0mm
20:44 75.9 °F /  24.4 °C 64.2 °F /  17.9 °C 30in /  1015.4hPa NE 5.2mph /  8.4km/h 8.1mph /  13km/h 67% 0in /  0.0mm
20:49 75.9 °F /  24.4 °C 64.2 °F /  17.9 °C 30in /  1015.7hPa NE 4.8mph /  7.8km/h 6.4mph /  10.3km/h 67% 0in /  0.0mm
20:54 75.9 °F /  24.4 °C 64.2 °F /  17.9 °C 30in /  1015.7hPa NE 4.3mph /  6.9km/h 6.9mph /  11.1km/h 67% 0in /  0.0mm
20:59 75.9 °F /  24.4 °C 64.2 °F /  17.9 °C 30in /  1015.7hPa NNE 4.2mph /  6.7km/h 6.2mph /  10km/h 67% 0in /  0.0mm
21:04 75.7 °F /  24.3 °C 64.4 °F /  18 °C 30in /  1015.9hPa NNE 4mph /  6.4km/h 7.4mph /  11.9km/h 67.7% 0in /  0.0mm
21:09 75.7 °F /  24.3 °C 64.6 °F /  18.1 °C 30in /  1015.9hPa NE 4.1mph /  6.6km/h 6.9mph /  11.1km/h 68.3% 0in /  0.0mm
21:14 75.7 °F /  24.3 °C 64.8 °F /  18.2 °C 30in /  1015.9hPa NNE 4.3mph /  6.9km/h 9.7mph /  15.6km/h 69% 0in /  0.0mm
21:19 75.6 °F /  24.2 °C 64.8 °F /  18.2 °C 30in /  1016.0hPa NNE 4.7mph /  7.6km/h 10.7mph /  17.2km/h 69.4% 0in /  0.0mm
21:24 75.2 °F /  24 °C 64.8 °F /  18.2 °C 30in /  1016.0hPa NE 5.4mph /  8.7km/h 8.1mph /  13km/h 70% 0in /  0.0mm
21:29 75 °F /  23.9 °C 64.6 °F /  18.1 °C 30in /  1016.0hPa NNE 5.6mph /  9km/h 11.5mph /  18.5km/h 70% 0in /  0.0mm
21:34 75 °F /  23.9 °C 64.6 °F /  18.1 °C 30in /  1016.3hPa NNE 5.9mph /  9.5km/h 9.7mph /  15.6km/h 70% 0in /  0.0mm
21:39 75 °F /  23.9 °C 64.8 °F /  18.2 °C 30in /  1016.3hPa NE 5.7mph /  9.2km/h 10.4mph /  16.7km/h 70.2% 0in /  0.0mm
21:44 75 °F /  23.9 °C 64.8 °F /  18.2 °C 30in /  1016.3hPa NE 5.4mph /  8.7km/h 9.2mph /  14.8km/h 70.5% 0in /  0.0mm
21:49 75 °F /  23.9 °C 64.6 °F /  18.1 °C 30in /  1016.4hPa NE 5.2mph /  8.3km/h 9.7mph /  15.6km/h 70% 0in /  0.0mm
21:54 75 °F /  23.9 °C 64.8 °F /  18.2 °C 30in /  1016.4hPa NE 4.7mph /  7.6km/h 9.2mph /  14.8km/h 70.2% 0in /  0.0mm
21:59 75 °F /  23.9 °C 64.9 °F /  18.3 °C 30in /  1016.4hPa NE 4.9mph /  7.9km/h 8.1mph /  13km/h 71% 0in /  0.0mm
22:04 75 °F /  23.9 °C 64.9 °F /  18.3 °C 30in /  1016.4hPa NE 5.2mph /  8.4km/h 6.2mph /  10km/h 71% 0in /  0.0mm
22:09 74.8 °F /  23.8 °C 64.9 °F /  18.3 °C 30in /  1016.4hPa NE 4.7mph /  7.6km/h 7.6mph /  12.2km/h 71% 0in /  0.0mm
22:14 74.8 °F /  23.8 °C 64.8 °F /  18.2 °C 30in /  1016.4hPa NNE 4mph /  6.4km/h 8.5mph /  13.7km/h 71% 0in /  0.0mm
22:19 74.7 °F /  23.7 °C 64.8 °F /  18.2 °C 30in /  1016.5hPa NNE 4.5mph /  7.2km/h 8.1mph /  13km/h 71% 0in /  0.0mm
22:24 74.7 °F /  23.7 °C 64.9 °F /  18.3 °C 30in /  1016.5hPa NNE 5.2mph /  8.4km/h 6.9mph /  11.1km/h 71.7% 0in /  0.0mm
22:29 74.5 °F /  23.6 °C 64.9 °F /  18.3 °C 30in /  1016.5hPa NNE 4.8mph /  7.8km/h 6.2mph /  10km/h 72% 0in /  0.0mm
22:34 74.5 °F /  23.6 °C 64.9 °F /  18.3 °C 30in /  1016.8hPa NNE 4.3mph /  6.9km/h 8.1mph /  13km/h 72% 0in /  0.0mm
22:39 74.3 °F /  23.5 °C 64.8 °F /  18.2 °C 30in /  1016.8hPa NNE 4.5mph /  7.2km/h 8.5mph /  13.7km/h 72% 0in /  0.0mm
22:44 74.3 °F /  23.5 °C 64.8 °F /  18.2 °C 30in /  1016.8hPa NNE 4.7mph /  7.6km/h 8.5mph /  13.7km/h 72.2% 0in /  0.0mm
22:49 74.1 °F /  23.4 °C 64.9 °F /  18.3 °C 30in /  1016.8hPa NNE 5mph /  8km/h 10.4mph /  16.7km/h 73% 0in /  0.0mm
22:54 74.1 °F /  23.4 °C 64.9 °F /  18.3 °C 30in /  1016.7hPa NNE 5.4mph /  8.7km/h 6.9mph /  11.1km/h 73% 0in /  0.0mm
22:59 74.1 °F /  23.4 °C 64.9 °F /  18.3 °C 30in /  1016.7hPa NE 4.8mph /  7.7km/h 5.9mph /  9.5km/h 73% 0in /  0.0mm
23:04 74.1 °F /  23.4 °C 64.9 °F /  18.3 °C 30in /  1016.7hPa NNE 4mph /  6.4km/h 5.8mph /  9.3km/h 73% 0in /  0.0mm
23:09 74.1 °F /  23.4 °C 64.9 °F /  18.3 °C 30in /  1016.7hPa NNE 3.9mph /  6.2km/h 6.9mph /  11.1km/h 73% 0in /  0.0mm
23:14 74.1 °F /  23.4 °C 64.9 °F /  18.3 °C 30in /  1016.7hPa NE 3.6mph /  5.8km/h 5.2mph /  8.4km/h 73% 0in /  0.0mm
23:19 74.1 °F /  23.4 °C 64.9 °F /  18.3 °C 30in /  1016.8hPa NNE 3.6mph /  5.8km/h 6.9mph /  11.1km/h 73% 0in /  0.0mm
23:24 74.1 °F /  23.4 °C 64.9 °F /  18.3 °C 30in /  1016.8hPa NNE 3.6mph /  5.8km/h 6.9mph /  11.1km/h 73% 0in /  0.0mm
23:29 73.9 °F /  23.3 °C 64.8 °F /  18.2 °C 30in /  1016.8hPa NE 3.9mph /  6.2km/h 6.9mph /  11.1km/h 73% 0in /  0.0mm
23:34 73.9 °F /  23.3 °C 64.9 °F /  18.3 °C 30in /  1016.8hPa NE 4.3mph /  6.9km/h 6.9mph /  11.1km/h 73.7% 0in /  0.0mm
23:39 73.8 °F /  23.2 °C 64.9 °F /  18.3 °C 30in /  1016.7hPa NNE 4.2mph /  6.7km/h 5.9mph /  9.5km/h 74% 0in /  0.0mm
23:44 73.8 °F /  23.2 °C 64.9 °F /  18.3 °C 30in /  1016.7hPa NE 4mph /  6.4km/h 7.4mph /  11.9km/h 74% 0in /  0.0mm
23:49 73.6 °F /  23.1 °C 64.9 °F /  18.3 °C 30in /  1016.7hPa NE 4.1mph /  6.6km/h 6.2mph /  10km/h 74.3% 0in /  0.0mm
23:54 73.6 °F /  23.1 °C 65.1 °F /  18.4 °C 30in /  1016.6hPa NNE 4.3mph /  6.9km/h 5.9mph /  9.5km/h 75% 0in /  0.0mm
23:59 73.4 °F /  23 °C 64.9 °F /  18.3 °C 30in /  1016.6hPa NNE 4mph /  6.5km/h 5.2mph /  8.4km/h 75% 0in /  0.0mm
Murcia-Puente Tocinos, España
Compliments of Weather Underground - 2.75 mb

La estación de MeteoMurcia.com, publica sus datos en los siguientes proyectos:

Weather Underground PWS IMURCIAP2 Meteoclimatic www.awekas.at

W3Counter
Web Analytics